Time;durP1;ratioP1;P1;durP2;ratioP2;P2;SDS_P1;SDS_P2;PMS_P1;PMS_P2;Temp;Humidity;BMP_temperature;BMP_pressure;BME280_temperature;BME280_humidity;BME280_pressure;Samples;Min_cycle;Max_cycle;Signal;HPM_P1;HPM_P2
2023/12/15 00:00:56;;;;;;;22.80;14.60;;;;;;;6.77;100.00;100169.88;105764;1254;60032;-76
2023/12/15 00:03:24;;;;;;;13.10;9.80;;;;;;;6.77;100.00;100170.40;105814;1254;60031;-76
2023/12/15 00:05:52;;;;;;;17.30;11.10;;;;;;;6.78;100.00;100173.10;105855;1252;71097;-79
2023/12/15 00:08:19;;;;;;;20.50;11.70;;;;;;;6.80;100.00;100170.41;105787;1258;64149;-75
2023/12/15 00:10:47;;;;;;;15.80;10.70;;;;;;;6.81;100.00;100171.58;105685;1254;71351;-78
2023/12/15 00:13:14;;;;;;;14.60;9.80;;;;;;;6.82;100.00;100173.05;105769;1254;60905;-76
2023/12/15 00:15:42;;;;;;;14.60;10.30;;;;;;;6.84;100.00;100177.85;105668;1259;59791;-76
2023/12/15 00:18:10;;;;;;;16.70;9.50;;;;;;;6.85;100.00;100179.52;105678;1253;71615;-76
2023/12/15 00:20:38;;;;;;;13.80;9.60;;;;;;;6.88;100.00;100183.05;105668;1252;62436;-74
2023/12/15 00:23:08;;;;;;;14.60;9.50;;;;;;;6.90;100.00;100187.80;105717;1257;72687;-77
2023/12/15 00:25:36;;;;;;;13.80;9.50;;;;;;;6.92;100.00;100185.61;105938;1256;60549;-76
2023/12/15 00:28:03;;;;;;;10.40;7.90;;;;;;;6.94;100.00;100186.39;105834;1257;60434;-78
2023/12/15 00:30:31;;;;;;;10.70;8.30;;;;;;;6.96;100.00;100185.58;105802;1254;73829;-78
2023/12/15 00:32:59;;;;;;;11.90;9.10;;;;;;;6.98;100.00;100188.07;105767;1254;62852;-76
2023/12/15 00:35:27;;;;;;;12.00;8.00;;;;;;;7.00;100.00;100193.86;105766;1254;72760;-75
2023/12/15 00:37:55;;;;;;;10.10;8.40;;;;;;;7.02;100.00;100192.38;105734;1255;60840;-78
2023/12/15 00:40:23;;;;;;;9.60;7.50;;;;;;;7.03;100.00;100196.31;105853;1260;60524;-78
2023/12/15 00:42:51;;;;;;;9.70;8.00;;;;;;;7.05;100.00;100193.61;105728;1254;72533;-79
2023/12/15 00:45:18;;;;;;;9.10;8.00;;;;;;;7.05;100.00;100198.12;105695;1259;62809;-77
2023/12/15 00:47:46;;;;;;;9.00;7.30;;;;;;;7.07;100.00;100205.69;105736;1255;71642;-76
2023/12/15 00:50:15;;;;;;;8.50;7.40;;;;;;;7.08;100.00;100211.70;105858;1259;60448;-77
2023/12/15 00:52:42;;;;;;;10.60;9.00;;;;;;;7.10;100.00;100214.05;105930;1254;60473;-73
2023/12/15 00:55:11;;;;;;;9.60;7.50;;;;;;;7.12;100.00;100231.88;105750;1254;72544;-77
2023/12/15 00:57:38;;;;;;;9.80;8.10;;;;;;;7.14;100.00;100259.40;105924;1254;62528;-75
2023/12/15 01:00:07;;;;;;;10.90;9.20;;;;;;;7.15;100.00;100277.93;105810;1254;71363;-77
2023/12/15 01:02:34;;;;;;;12.10;10.40;;;;;;;7.08;100.00;100288.36;105906;1253;60901;-79
2023/12/15 01:05:04;;;;;;;11.90;10.10;;;;;;;6.83;100.00;100301.25;105891;1252;60546;-78
2023/12/15 01:07:32;;;;;;;12.50;10.50;;;;;;;6.50;100.00;100312.95;105752;1256;73194;-75
2023/12/15 01:09:59;;;;;;;14.10;10.50;;;;;;;6.14;100.00;100317.58;105787;1256;62633;-74
2023/12/15 01:12:27;;;;;;;10.90;9.50;;;;;;;5.84;100.00;100331.08;105842;1254;74879;-75
2023/12/15 01:14:54;;;;;;;11.10;9.90;;;;;;;5.61;100.00;100344.22;105819;1252;60505;-77
2023/12/15 01:17:22;;;;;;;11.40;9.50;;;;;;;5.43;100.00;100342.59;105749;1254;60351;-75
2023/12/15 01:19:50;;;;;;;10.90;9.30;;;;;;;5.26;100.00;100340.18;105967;1254;73867;-74
2023/12/15 01:22:17;;;;;;;12.00;8.80;;;;;;;5.13;100.00;100333.98;105891;1257;64181;-75
2023/12/15 01:24:45;;;;;;;11.50;9.30;;;;;;;5.02;100.00;100333.08;105815;1256;71466;-75
2023/12/15 01:27:13;;;;;;;12.00;9.00;;;;;;;4.94;100.00;100339.27;105857;1256;60536;-75
2023/12/15 01:29:40;;;;;;;8.90;8.00;;;;;;;4.89;100.00;100340.18;105911;1254;60588;-75
2023/12/15 01:32:08;;;;;;;9.50;8.30;;;;;;;4.78;100.00;100338.55;105974;1254;74359;-76
2023/12/15 01:34:35;;;;;;;9.20;8.30;;;;;;;4.65;100.00;100345.98;105847;1254;62528;-77
2023/12/15 01:37:03;;;;;;;10.70;8.20;;;;;;;4.54;100.00;100354.92;105896;1256;71926;-76
2023/12/15 01:39:31;;;;;;;9.30;7.60;;;;;;;4.44;100.00;100365.14;105953;1251;60424;-76
2023/12/15 01:41:59;;;;;;;9.80;7.90;;;;;;;4.37;100.00;100364.05;105930;1254;60453;-74
2023/12/15 01:44:27;;;;;;;11.40;9.30;;;;;;;4.29;100.00;100367.13;105703;1254;73785;-75
2023/12/15 01:46:54;;;;;;;11.40;8.80;;;;;;;4.23;100.00;100359.90;105743;1254;62537;-73
2023/12/15 01:49:23;;;;;;;10.50;7.70;;;;;;;4.19;100.00;100362.16;105894;1256;71473;-75
2023/12/15 01:51:52;;;;;;;9.80;7.80;;;;;;;4.16;100.00;100366.21;105839;1255;60517;-74
2023/12/15 01:54:19;;;;;;;11.80;9.00;;;;;;;4.15;100.00;100375.41;105860;1254;60559;-74
2023/12/15 01:56:47;;;;;;;10.60;8.50;;;;;;;4.15;100.00;100371.81;105880;1253;72668;-73
2023/12/15 01:59:14;;;;;;;13.70;9.70;;;;;;;4.11;100.00;100372.63;105777;1254;62271;-75
2023/12/15 02:01:42;;;;;;;10.60;7.80;;;;;;;4.05;100.00;100374.42;105828;1256;71054;-76
2023/12/15 02:04:09;;;;;;;10.60;9.00;;;;;;;3.97;100.00;100383.02;105824;1253;60522;-79
2023/12/15 02:06:37;;;;;;;10.90;9.80;;;;;;;3.90;100.00;100389.50;105921;1256;60428;-75
2023/12/15 02:09:06;;;;;;;11.20;8.20;;;;;;;3.87;100.00;100394.27;105676;1259;72654;-74
2023/12/15 02:11:33;;;;;;;8.70;7.40;;;;;;;3.86;100.00;100403.49;105882;1256;63484;-76
2023/12/15 02:14:01;;;;;;;9.40;7.70;;;;;;;3.83;100.00;100407.04;105831;1254;71480;-75
2023/12/15 02:16:29;;;;;;;9.00;8.00;;;;;;;3.81;100.00;100409.73;106020;1254;61043;-76
2023/12/15 02:18:57;;;;;;;9.10;8.00;;;;;;;3.77;100.00;100413.33;105839;1254;60360;-76
2023/12/15 02:21:24;;;;;;;12.20;9.50;;;;;;;3.71;100.00;100411.42;105792;1256;73888;-76
2023/12/15 02:23:52;;;;;;;10.80;7.90;;;;;;;3.66;100.00;100408.84;105919;1260;62603;-75
2023/12/15 02:26:19;;;;;;;11.00;8.50;;;;;;;3.62;100.00;100416.92;105854;1257;72663;-74
2023/12/15 02:28:47;;;;;;;9.00;8.10;;;;;;;3.59;100.00;100414.80;105883;1256;60469;-76
2023/12/15 02:31:17;;;;;;;11.70;8.80;;;;;;;3.52;100.00;100417.10;105788;1255;60649;-76
2023/12/15 02:33:44;;;;;;;9.70;8.30;;;;;;;3.44;100.00;100427.25;105877;1256;73829;-77
2023/12/15 02:36:20;;;;;;;11.10;9.00;;;;;;;3.39;100.00;100430.17;105813;1256;62412;-76
2023/12/15 02:38:47;;;;;;;10.80;8.50;;;;;;;3.36;100.00;100416.63;105824;1257;71106;-77
2023/12/15 02:41:15;;;;;;;9.60;8.60;;;;;;;3.33;100.00;100417.92;105761;1254;61591;-76
2023/12/15 02:43:43;;;;;;;12.00;9.30;;;;;;;3.28;100.00;100430.52;105665;1256;60482;-76
2023/12/15 02:46:11;;;;;;;9.80;8.70;;;;;;;3.23;100.00;100442.62;105849;1256;73817;-76
2023/12/15 02:48:38;;;;;;;11.20;9.80;;;;;;;3.19;100.00;100442.57;105713;1256;62582;-76
2023/12/15 02:51:07;;;;;;;12.80;10.00;;;;;;;3.13;100.00;100448.63;105742;1259;72566;-76
2023/12/15 02:53:35;;;;;;;13.60;11.20;;;;;;;3.06;100.00;100462.84;105819;1254;60572;-77
2023/12/15 02:56:04;;;;;;;17.20;12.50;;;;;;;3.02;100.00;100457.60;105817;1257;60360;-77
2023/12/15 02:58:32;;;;;;;15.10;11.50;;;;;;;3.01;100.00;100445.73;105913;1252;72583;-77
2023/12/15 03:01:00;;;;;;;14.00;11.30;;;;;;;3.00;100.00;100449.74;105698;1260;62408;-76
2023/12/15 03:03:27;;;;;;;12.80;11.00;;;;;;;2.97;100.00;100458.98;105708;1254;73217;-77
2023/12/15 03:05:55;;;;;;;15.80;12.80;;;;;;;2.97;100.00;100463.30;105851;1257;60572;-75
2023/12/15 03:08:24;;;;;;;16.90;12.70;;;;;;;2.97;100.00;100467.79;105888;1256;60470;-74
2023/12/15 03:10:55;;;;;;;17.20;13.10;;;;;;;2.95;100.00;100472.84;105919;1258;72627;-75
2023/12/15 03:13:22;;;;;;;14.80;12.30;;;;;;;2.92;100.00;100477.27;105927;1256;61967;-75
2023/12/15 03:15:51;;;;;;;18.60;14.20;;;;;;;2.88;100.00;100486.19;105959;1256;72685;-75
2023/12/15 03:18:18;;;;;;;18.60;15.50;;;;;;;2.83;100.00;100486.84;105684;1257;60887;-75
2023/12/15 03:20:49;;;;;;;18.70;15.00;;;;;;;2.80;100.00;100488.15;105767;1256;60531;-75
2023/12/15 03:23:16;;;;;;;18.80;15.20;;;;;;;2.78;100.00;100500.66;105746;1256;73905;-76
2023/12/15 03:25:44;;;;;;;18.50;15.40;;;;;;;2.75;100.00;100509.36;105850;1255;63630;-76
2023/12/15 03:28:12;;;;;;;20.40;15.90;;;;;;;2.75;100.00;100521.64;105801;1257;72675;-74
2023/12/15 03:30:39;;;;;;;23.10;16.10;;;;;;;2.73;100.00;100525.98;105935;1256;60879;-74
2023/12/15 03:33:07;;;;;;;21.30;15.80;;;;;;;2.70;100.00;100509.34;105736;1254;60485;-75
2023/12/15 03:35:34;;;;;;;36.30;17.70;;;;;;;2.69;100.00;100510.40;105737;1257;73787;-75
2023/12/15 03:38:02;;;;;;;20.60;16.50;;;;;;;2.68;100.00;100514.03;105726;1256;62289;-76
2023/12/15 03:40:31;;;;;;;18.70;15.40;;;;;;;2.67;100.00;100519.10;105904;1253;70190;-74
2023/12/15 03:42:59;;;;;;;21.30;15.70;;;;;;;2.69;100.00;100520.92;105831;1257;60571;-74
2023/12/15 03:45:27;;;;;;;18.70;14.70;;;;;;;2.70;100.00;100527.45;105805;1256;60434;-76
2023/12/15 03:47:58;;;;;;;20.50;14.70;;;;;;;2.68;100.00;100530.78;105815;1256;72604;-77
2023/12/15 03:50:25;;;;;;;21.20;15.60;;;;;;;2.64;100.00;100544.20;105915;1256;62270;-76
2023/12/15 03:52:53;;;;;;;22.40;15.80;;;;;;;2.59;100.00;100552.63;105771;1257;71285;-74
2023/12/15 03:55:21;;;;;;;22.50;16.40;;;;;;;2.54;100.00;100557.08;105867;1258;60478;-76
2023/12/15 03:57:48;;;;;;;21.50;15.90;;;;;;;2.52;100.00;100557.33;106032;1263;60437;-77
2023/12/15 04:00:17;;;;;;;23.20;16.60;;;;;;;2.48;100.00;100567.09;105890;1252;72909;-75
2023/12/15 04:02:44;;;;;;;20.80;15.00;;;;;;;2.43;100.00;100581.55;105892;1257;63560;-75
2023/12/15 04:05:13;;;;;;;22.30;14.70;;;;;;;2.39;100.00;100595.80;105878;1266;72728;-75
2023/12/15 04:07:41;;;;;;;21.60;14.10;;;;;;;2.32;100.00;100596.33;106032;1254;60825;-73
2023/12/15 04:10:09;;;;;;;21.80;14.60;;;;;;;2.26;100.00;100596.29;105989;1254;60433;-74
2023/12/15 04:12:36;;;;;;;25.50;15.00;;;;;;;2.22;100.00;100606.94;106150;1266;73893;-74
2023/12/15 04:15:08;;;;;;;22.40;14.10;;;;;;;2.14;100.00;100607.31;105968;1256;62897;-77
2023/12/15 04:17:42;;;;;;;17.20;11.60;;;;;;;2.05;100.00;100605.48;105875;1256;71520;-76
2023/12/15 04:20:11;;;;;;;15.20;12.10;;;;;;;1.94;100.00;100610.94;105844;1255;60549;-76
2023/12/15 04:22:39;;;;;;;18.10;12.80;;;;;;;1.84;100.00;100613.23;105950;1257;61166;-77
2023/12/15 04:25:07;;;;;;;21.00;12.20;;;;;;;1.77;100.00;100617.36;105997;1256;73823;-75
2023/12/15 04:27:34;;;;;;;19.70;14.20;;;;;;;1.72;100.00;100624.36;106165;1252;63566;-75
2023/12/15 04:30:07;;;;;;;22.40;13.80;;;;;;;1.66;100.00;100630.86;106065;1256;71034;-74
2023/12/15 04:32:35;;;;;;;18.80;13.70;;;;;;;1.60;100.00;100628.42;105823;1257;62302;-75
2023/12/15 04:35:03;;;;;;;18.70;12.60;;;;;;;1.57;100.00;100621.94;105962;1257;61294;-76
2023/12/15 04:37:31;;;;;;;15.80;11.30;;;;;;;1.57;100.00;100628.31;105840;1258;73838;-76
2023/12/15 04:39:58;;;;;;;14.50;10.30;;;;;;;1.55;100.00;100642.33;105804;1259;62407;-75
2023/12/15 04:42:27;;;;;;;14.00;9.90;;;;;;;1.50;100.00;100649.34;105884;1255;72397;-77
2023/12/15 04:44:55;;;;;;;13.10;10.10;;;;;;;1.43;100.00;100645.16;105817;1258;60908;-76
2023/12/15 04:47:23;;;;;;;14.80;10.90;;;;;;;1.36;100.00;100637.75;105917;1253;60462;-75
2023/12/15 04:49:50;;;;;;;11.70;9.00;;;;;;;1.30;100.00;100637.20;105842;1257;72550;-76
2023/12/15 04:52:18;;;;;;;14.50;9.80;;;;;;;1.27;100.00;100650.70;105781;1253;62329;-74
2023/12/15 04:54:47;;;;;;;13.60;10.40;;;;;;;1.25;100.00;100652.63;105844;1253;71430;-74
2023/12/15 04:57:14;;;;;;;15.40;10.70;;;;;;;1.20;100.00;100658.73;106067;1255;60692;-76
2023/12/15 04:59:42;;;;;;;13.10;10.20;;;;;;;1.18;100.00;100669.84;105774;1257;60344;-77
2023/12/15 05:02:10;;;;;;;12.50;9.20;;;;;;;1.13;100.00;100658.74;105911;1252;73889;-75
2023/12/15 05:04:38;;;;;;;12.00;10.10;;;;;;;1.05;100.00;100661.31;105852;1266;64050;-76
2023/12/15 05:07:08;;;;;;;13.00;9.50;;;;;;;0.97;100.00;100666.98;105847;1256;73144;-78
2023/12/15 05:09:36;;;;;;;9.10;7.90;;;;;;;0.89;100.00;100658.52;105670;1257;60505;-77
2023/12/15 05:12:04;;;;;;;13.50;9.80;;;;;;;0.81;100.00;100667.10;105757;1258;60411;-77
2023/12/15 05:14:33;;;;;;;10.90;9.00;;;;;;;0.79;100.00;100680.75;105758;1256;72785;-76
2023/12/15 05:17:02;;;;;;;10.90;8.80;;;;;;;0.77;100.00;100677.15;105771;1257;62267;-77
2023/12/15 05:19:30;;;;;;;12.80;9.40;;;;;;;0.76;100.00;100679.08;105793;1257;73160;-77
2023/12/15 05:21:58;;;;;;;12.10;8.90;;;;;;;0.75;100.00;100679.96;105856;1260;60549;-79
2023/12/15 05:24:26;;;;;;;12.80;8.30;;;;;;;0.73;100.00;100682.39;105802;1262;60424;-77
2023/12/15 05:26:53;;;;;;;13.20;9.60;;;;;;;0.67;100.00;100683.20;106130;1266;75104;-76
2023/12/15 05:29:21;;;;;;;12.60;8.90;;;;;;;0.62;100.00;100688.29;105981;1256;63452;-75
2023/12/15 05:31:49;;;;;;;12.30;9.40;;;;;;;0.58;100.00;100693.50;106021;1253;71402;-77
2023/12/15 05:34:17;;;;;;;13.10;9.90;;;;;;;0.54;100.00;100697.52;105915;1256;60929;-78
2023/12/15 05:36:45;;;;;;;15.20;8.50;;;;;;;0.52;100.00;100695.33;105852;1257;60463;-76
2023/12/15 05:39:14;;;;;;;13.00;8.20;;;;;;;0.52;100.00;100700.50;105875;1257;74424;-78
2023/12/15 05:41:42;;;;;;;10.70;7.90;;;;;;;0.49;100.00;100714.81;105926;1257;64587;-77
2023/12/15 05:44:13;;;;;;;11.00;7.80;;;;;;;0.49;100.00;100733.41;106802;1256;71429;-78
2023/12/15 05:46:41;;;;;;;11.10;6.80;;;;;;;0.47;100.00;100736.19;105997;1252;60454;-78
2023/12/15 05:49:12;;;;;;;9.00;7.30;;;;;;;0.42;100.00;100735.75;106111;1253;60986;-77
2023/12/15 05:51:46;;;;;;;9.70;6.80;;;;;;;0.39;100.00;100743.52;106355;1252;73887;-77
2023/12/15 05:54:15;;;;;;;10.20;6.90;;;;;;;0.37;100.00;100755.25;105966;1257;63716;-78
2023/12/15 05:56:42;;;;;;;11.20;6.80;;;;;;;0.33;100.00;100757.03;105778;1254;72696;-78
2023/12/15 05:59:10;;;;;;;9.30;6.90;;;;;;;0.29;100.00;100755.39;105867;1258;60550;-78
2023/12/15 06:01:37;;;;;;;12.20;6.50;;;;;;;0.22;100.00;100761.68;105707;1253;60515;-78
2023/12/15 06:04:05;;;;;;;9.50;6.00;;;;;;;0.17;100.00;100762.27;105836;1257;74361;-79
2023/12/15 06:06:33;;;;;;;9.60;6.50;;;;;;;0.13;100.00;100770.06;105833;1256;63885;-76
2023/12/15 06:09:02;;;;;;;7.40;6.40;;;;;;;0.14;100.00;100779.70;105775;1258;72635;-78
2023/12/15 06:11:29;;;;;;;9.50;5.80;;;;;;;0.13;100.00;100780.70;105698;1257;60565;-75
2023/12/15 06:13:57;;;;;;;8.50;6.40;;;;;;;0.12;100.00;100783.99;105807;1257;60341;-76
2023/12/15 06:16:25;;;;;;;10.30;6.10;;;;;;;0.11;100.00;100788.50;105911;1257;73857;-77
2023/12/15 06:18:53;;;;;;;8.30;6.00;;;;;;;0.08;100.00;100790.58;106588;1257;65008;-75
2023/12/15 06:21:24;;;;;;;8.10;6.40;;;;;;;0.03;100.00;100794.61;106024;1256;73111;-76
2023/12/15 06:23:52;;;;;;;11.50;6.60;;;;;;;-0.02;100.00;100797.09;105853;1256;61124;-78
2023/12/15 06:26:21;;;;;;;8.50;6.60;;;;;;;-0.02;100.00;100800.52;105782;1254;60540;-78
2023/12/15 06:28:49;;;;;;;11.30;7.60;;;;;;;0.00;100.00;100801.19;105812;1256;73840;-77
2023/12/15 06:31:17;;;;;;;8.70;7.70;;;;;;;0.03;100.00;100802.18;105732;1257;63615;-77
2023/12/15 06:33:44;;;;;;;15.90;8.10;;;;;;;0.04;100.00;100804.39;105991;1257;74324;-78
2023/12/15 06:36:12;;;;;;;12.80;8.40;;;;;;;0.05;100.00;100808.85;105772;1256;60463;-78
2023/12/15 06:38:43;;;;;;;10.90;8.90;;;;;;;0.06;100.00;100807.98;105924;1252;60572;-76
2023/12/15 06:41:18;;;;;;;13.10;7.90;;;;;;;0.04;100.00;100811.95;106015;1255;72648;-77
2023/12/15 06:43:46;;;;;;;11.80;8.40;;;;;;;0.06;100.00;100813.15;105902;1256;62309;-77
2023/12/15 06:46:14;;;;;;;12.40;8.10;;;;;;;0.09;100.00;100821.52;105954;1256;71420;-78
2023/12/15 06:48:41;;;;;;;12.90;8.00;;;;;;;0.10;100.00;100825.80;105862;1254;60476;-76
2023/12/15 06:51:09;;;;;;;11.60;8.00;;;;;;;0.10;100.00;100828.89;105978;1254;60546;-78
2023/12/15 06:53:37;;;;;;;13.10;8.10;;;;;;;0.09;100.00;100833.55;105948;1254;73895;-78
2023/12/15 06:56:05;;;;;;;12.20;8.00;;;;;;;0.09;100.00;100837.32;105955;1254;62707;-78
2023/12/15 06:58:33;;;;;;;7.10;6.40;;;;;;;0.09;100.00;100835.77;106008;1257;72657;-76
2023/12/15 07:01:02;;;;;;;11.00;6.80;;;;;;;0.04;100.00;100846.84;105936;1256;61003;-78
2023/12/15 07:03:30;;;;;;;9.30;6.60;;;;;;;-0.02;100.00;100849.69;105869;1257;62363;-78
2023/12/15 07:05:58;;;;;;;10.90;6.60;;;;;;;-0.07;100.00;100857.48;106115;1254;73839;-79
2023/12/15 07:08:26;;;;;;;12.00;7.40;;;;;;;-0.10;100.00;100866.95;105995;1256;62270;-79
2023/12/15 07:10:53;;;;;;;11.80;6.80;;;;;;;-0.16;100.00;100866.86;105937;1260;70156;-77
2023/12/15 07:13:21;;;;;;;12.10;6.60;;;;;;;-0.21;100.00;100855.58;105951;1255;60819;-79
2023/12/15 07:15:48;;;;;;;10.00;6.40;;;;;;;-0.25;100.00;100852.53;105897;1254;60569;-78
2023/12/15 07:18:16;;;;;;;10.10;7.00;;;;;;;-0.28;100.00;100857.39;105828;1254;74471;-77
2023/12/15 07:20:44;;;;;;;12.00;6.20;;;;;;;-0.30;100.00;100861.52;105956;1256;63915;-77
2023/12/15 07:23:12;;;;;;;10.60;6.60;;;;;;;-0.33;100.00;100869.98;106000;1257;72605;-78
2023/12/15 07:25:41;;;;;;;9.50;6.20;;;;;;;-0.35;100.00;100891.81;105893;1257;60562;-77
2023/12/15 07:28:09;;;;;;;8.30;7.20;;;;;;;-0.35;100.00;100897.98;105874;1254;60543;-78
2023/12/15 07:30:39;;;;;;;9.60;6.40;;;;;;;-0.33;100.00;100912.92;105681;1257;72626;-79
2023/12/15 07:33:08;;;;;;;9.60;7.00;;;;;;;-0.36;100.00;100922.39;105774;1254;62573;-79
2023/12/15 07:35:38;;;;;;;9.70;6.00;;;;;;;-0.44;100.00;100908.56;105911;1256;72852;-78
2023/12/15 07:38:07;;;;;;;12.20;7.00;;;;;;;-0.50;100.00;100912.23;105899;1253;61709;-78
2023/12/15 07:40:35;;;;;;;13.50;7.10;;;;;;;-0.50;100.00;100927.85;105822;1257;60489;-78
2023/12/15 07:43:02;;;;;;;11.70;7.20;;;;;;;-0.49;100.00;100915.14;105880;1254;73838;-79
2023/12/15 07:45:30;;;;;;;8.50;6.00;;;;;;;-0.51;100.00;100917.55;105781;1254;63582;-79
2023/12/15 07:47:58;;;;;;;10.90;6.70;;;;;;;-0.54;100.00;100921.55;105830;1256;71627;-78
2023/12/15 07:50:26;;;;;;;10.00;6.30;;;;;;;-0.58;100.00;100920.54;105924;1255;60559;-77
2023/12/15 07:52:58;;;;;;;13.60;6.50;;;;;;;-0.59;100.00;100918.66;106026;1256;60536;-80
2023/12/15 07:55:26;;;;;;;8.30;5.70;;;;;;;-0.60;100.00;100924.17;105955;1256;74083;-78
2023/12/15 07:57:54;;;;;;;7.60;5.30;;;;;;;-0.67;100.00;100936.23;105963;1254;63680;-79
2023/12/15 08:00:29;;;;;;;8.20;5.70;;;;;;;-0.77;100.00;100958.13;105953;1256;72741;-78
2023/12/15 08:02:58;;;;;;;11.50;6.90;;;;;;;-0.83;100.00;100980.67;105828;1252;60862;-79
2023/12/15 08:05:26;;;;;;;11.40;7.00;;;;;;;-0.88;100.00;100971.27;105798;1253;60444;-79
2023/12/15 08:07:54;;;;;;;16.70;7.50;;;;;;;-0.93;100.00;100940.92;105872;1254;74387;-78
2023/12/15 08:10:25;;;;;;;13.40;7.40;;;;;;;-0.96;100.00;100953.98;105851;1254;63631;-80
2023/12/15 08:12:53;;;;;;;11.40;6.40;;;;;;;-0.99;100.00;100960.20;105799;1258;72745;-77
2023/12/15 08:15:21;;;;;;;14.50;7.80;;;;;;;-1.05;100.00;100958.68;105937;1254;60517;-78
2023/12/15 08:17:51;;;;;;;17.00;8.60;;;;;;;-1.07;100.00;100980.66;105923;1257;60466;-78
2023/12/15 08:20:19;;;;;;;13.20;8.20;;;;;;;-1.11;100.00;101002.81;105936;1253;73568;-78
2023/12/15 08:22:46;;;;;;;11.50;8.40;;;;;;;-1.13;100.00;101011.41;105825;1256;63504;-78
2023/12/15 08:25:14;;;;;;;16.30;7.60;;;;;;;-1.17;100.00;101004.39;105734;1257;72746;-80
2023/12/15 08:27:42;;;;;;;12.60;7.70;;;;;;;-1.22;100.00;100990.35;105839;1257;61008;-78
2023/12/15 08:33:28;;;;;;;12.60;7.20;;;;;;;-1.25;100.00;100974.92;102436;1294;616968;-80
2023/12/15 08:35:55;;;;;;;11.10;7.20;;;;;;;-1.31;100.00;101007.90;105304;1260;60994;-79
2023/12/15 08:38:24;;;;;;;13.20;7.70;;;;;;;-1.31;100.00;101039.28;105366;1259;60224;-80
2023/12/15 08:40:52;;;;;;;9.40;6.60;;;;;;;-1.32;100.00;101040.32;105353;1259;72326;-77
2023/12/15 08:43:19;;;;;;;18.10;9.30;;;;;;;-1.32;100.00;101024.03;105421;1263;62839;-78
2023/12/15 08:45:46;;;;;;;9.90;6.30;;;;;;;-1.35;100.00;101003.11;105374;1263;223077;-78
2023/12/15 08:48:13;;;;;;;12.50;6.40;;;;;;;-1.36;100.00;100994.88;105784;1261;61281;-80
2023/12/15 08:50:40;;;;;;;11.10;6.00;;;;;;;-1.33;100.00;100988.88;105450;1260;59358;-79
2023/12/15 08:53:08;;;;;;;11.20;5.90;;;;;;;-1.31;100.00;100991.78;105682;1256;72628;-80
2023/12/15 08:55:36;;;;;;;9.00;6.20;;;;;;;-1.30;100.00;101010.98;105654;1259;63816;-79
2023/12/15 08:58:03;;;;;;;13.40;5.70;;;;;;;-1.29;100.00;101023.84;105374;1260;71029;-82
2023/12/15 09:00:31;;;;;;;13.20;6.90;;;;;;;-1.28;100.00;101020.58;105754;1255;61114;-79
2023/12/15 09:02:58;;;;;;;17.60;6.30;;;;;;;-1.27;100.00;101017.82;105831;1253;59731;-77
2023/12/15 09:05:25;;;;;;;16.30;7.10;;;;;;;-1.24;100.00;101020.90;105841;1257;73041;-78
2023/12/15 09:07:56;;;;;;;9.40;6.20;;;;;;;-1.21;100.00;101021.73;105951;1257;62780;-80
2023/12/15 09:10:25;;;;;;;10.50;6.90;;;;;;;-1.22;100.00;101021.58;105919;1257;72319;-77
2023/12/15 09:12:53;;;;;;;10.80;8.40;;;;;;;-1.30;100.00;101033.45;105892;1253;60956;-78
2023/12/15 09:15:20;;;;;;;12.30;7.90;;;;;;;-1.37;100.00;101031.95;106200;1257;60396;-79
2023/12/15 09:17:47;;;;;;;11.70;6.70;;;;;;;-1.41;100.00;101042.23;105837;1254;73137;-79
2023/12/15 09:20:14;;;;;;;13.90;6.60;;;;;;;-1.43;100.00;101059.58;105819;1253;64456;-80
2023/12/15 09:22:41;;;;;;;15.80;6.60;;;;;;;-1.50;100.00;101048.61;105775;1254;72919;-79
2023/12/15 09:25:08;;;;;;;12.10;6.30;;;;;;;-1.55;100.00;101036.79;105811;1253;61077;-79
2023/12/15 09:27:35;;;;;;;14.70;6.90;;;;;;;-1.58;100.00;101048.12;105723;1252;60334;-79
2023/12/15 09:30:03;;;;;;;10.90;6.60;;;;;;;-1.59;100.00;101072.31;105845;1256;74327;-81
2023/12/15 09:32:30;;;;;;;13.30;6.40;;;;;;;-1.60;100.00;101062.52;105752;1257;63901;-79
2023/12/15 09:34:57;;;;;;;14.50;6.40;;;;;;;-1.63;100.00;101052.95;105833;1253;72586;-79
2023/12/15 09:37:24;;;;;;;13.60;6.20;;;;;;;-1.69;100.00;101052.95;105866;1257;61040;-78
2023/12/15 09:39:55;;;;;;;12.90;6.70;;;;;;;-1.69;100.00;101065.80;105845;1253;60241;-79
2023/12/15 09:42:23;;;;;;;9.10;5.80;;;;;;;-1.71;100.00;101065.31;105773;1257;74044;-77
2023/12/15 09:44:51;;;;;;;16.00;6.60;;;;;;;-1.74;100.00;101071.14;105699;1253;64978;-79
2023/12/15 09:47:35;;;;;;;8.60;5.50;;;;;;;-1.77;100.00;101064.64;105677;1253;72702;-78
2023/12/15 09:50:04;;;;;;;16.90;6.80;;;;;;;-1.76;100.00;101070.11;105691;1252;61164;-78
2023/12/15 09:52:32;;;;;;;9.50;5.80;;;;;;;-1.78;100.00;101067.55;105767;1257;62411;-79
2023/12/15 09:55:00;;;;;;;10.40;6.40;;;;;;;-1.80;100.00;101066.52;105708;1253;71594;-78
2023/12/15 09:57:26;;;;;;;7.20;5.50;;;;;;;-1.79;100.00;101068.07;105668;1258;63759;-79
2023/12/15 09:59:54;;;;;;;8.30;4.80;;;;;;;-1.83;100.00;101069.63;105711;1253;71430;-79
2023/12/15 10:02:21;;;;;;;12.70;5.70;;;;;;;-1.89;100.00;101070.48;105713;1257;62211;-80
2023/12/15 10:04:48;;;;;;;8.00;5.70;;;;;;;-1.93;100.00;101067.25;106070;1253;60247;-79
2023/12/15 10:07:15;;;;;;;16.30;5.20;;;;;;;-1.94;100.00;101071.01;105681;1256;72228;-79
2023/12/15 10:09:43;;;;;;;13.20;5.20;;;;;;;-1.93;100.00;101073.57;105740;1257;63753;-79
2023/12/15 10:12:10;;;;;;;14.80;5.90;;;;;;;-1.93;100.00;101066.73;105722;1257;71513;-79
2023/12/15 10:14:38;;;;;;;13.90;7.30;;;;;;;-1.92;100.00;101079.23;105639;1257;61909;-79
2023/12/15 10:17:11;;;;;;;22.70;12.10;;;;;;;-1.89;100.00;101095.67;105758;1254;59544;-78
2023/12/15 10:19:38;;;;;;;16.80;7.90;;;;;;;-1.85;100.00;101103.55;105717;1257;72870;-79
2023/12/15 10:22:05;;;;;;;9.60;4.80;;;;;;;-1.84;100.00;101109.73;105750;1257;62608;-78
2023/12/15 10:24:33;;;;;;;11.60;4.70;;;;;;;-1.86;100.00;101113.66;105870;1253;72674;-78
2023/12/15 10:27:03;;;;;;;13.20;4.70;;;;;;;-1.87;100.00;101118.97;105817;1253;61381;-79
2023/12/15 10:29:30;;;;;;;11.20;5.30;;;;;;;-1.86;100.00;101123.27;105804;1253;59645;-77
2023/12/15 10:31:58;;;;;;;13.80;5.00;;;;;;;-1.83;100.00;101140.56;105827;1253;73337;-77
2023/12/15 10:34:25;;;;;;;14.80;5.70;;;;;;;-1.81;100.00;101151.18;105902;1253;62685;-79
2023/12/15 10:36:53;;;;;;;17.40;6.50;;;;;;;-1.81;100.00;101117.95;106424;1253;71299;-79
2023/12/15 10:39:21;;;;;;;13.10;6.30;;;;;;;-1.76;100.00;101109.02;105664;1257;62543;-78
2023/12/15 10:41:51;;;;;;;10.10;5.40;;;;;;;-1.69;100.00;101116.55;105808;1253;60360;-79
2023/12/15 10:44:19;;;;;;;18.10;5.90;;;;;;;-1.64;100.00;101122.54;105683;1253;73608;-78
2023/12/15 10:46:47;;;;;;;15.50;5.40;;;;;;;-1.62;100.00;101132.48;105642;1260;63908;-79
2023/12/15 10:49:14;;;;;;;23.20;4.90;;;;;;;-1.63;100.00;101142.94;105767;1257;72716;-78
2023/12/15 10:51:41;;;;;;;19.10;7.10;;;;;;;-1.67;100.00;101147.74;105704;1253;61941;-79
2023/12/15 10:54:11;;;;;;;15.60;6.10;;;;;;;-1.70;100.00;101153.06;105710;1253;60169;-80
2023/12/15 10:56:38;;;;;;;8.30;4.70;;;;;;;-1.71;100.00;101164.21;105658;1254;73098;-79
2023/12/15 10:59:09;;;;;;;9.20;4.50;;;;;;;-1.72;100.00;101163.17;105762;1253;62256;-79
2023/12/15 11:01:38;;;;;;;11.10;4.80;;;;;;;-1.74;100.00;101162.33;105690;1257;71003;-78
2023/12/15 11:04:22;;;;;;;12.60;5.00;;;;;;;-1.78;100.00;101169.35;105740;1253;63042;-77
2023/12/15 11:06:49;;;;;;;14.00;5.30;;;;;;;-1.76;100.00;101187.00;105699;1253;60183;-77
2023/12/15 11:09:31;;;;;;;9.50;5.40;;;;;;;-1.73;100.00;101186.84;105724;1253;73085;-77
2023/12/15 11:12:24;;;;;;;13.80;4.80;;;;;;;-1.70;100.00;101197.27;105854;1253;63799;-79
2023/12/15 11:14:53;;;;;;;22.00;7.60;;;;;;;-1.72;100.00;101204.15;105804;1253;71357;-79